Time;durP1;ratioP1;P1;durP2;ratioP2;P2;SDS_P1;SDS_P2;PMS_P1;PMS_P2;Temp;Humidity;BMP_temperature;BMP_pressure;BME280_temperature;BME280_humidity;BME280_pressure;Samples;Min_cycle;Max_cycle;Signal;HPM_P1;HPM_P2
2022/03/15 00:00:19;;;;;;;2.38;1.20;;;;;;;;;;7399773;19;20003;-78
2022/03/15 00:02:45;;;;;;;1.88;1.38;;;;;;;;;;7396866;19;20426;-77
2022/03/15 00:05:10;;;;;;;2.90;1.60;;;;;;;;;;7397583;19;20549;-78
2022/03/15 00:07:35;;;;;;;3.92;1.42;;;;;;;;;;7399834;19;20002;-77
2022/03/15 00:10:01;;;;;;;2.00;1.45;;;;;;;;;;7402267;19;20332;-78
2022/03/15 00:12:28;;;;;;;2.95;1.30;;;;;;;;;;7400046;19;20332;-77
2022/03/15 00:14:53;;;;;;;2.17;1.15;;;;;;;;;;7401285;19;20010;-78
2022/03/15 00:17:20;;;;;;;2.70;1.58;;;;;;;;;;7399110;19;20019;-78
2022/03/15 00:19:45;;;;;;;1.88;1.30;;;;;;;;;;7399000;19;20013;-78
2022/03/15 00:22:11;;;;;;;2.78;1.60;;;;;;;;;;7401347;19;20066;-78
2022/03/15 00:24:37;;;;;;;2.50;1.45;;;;;;;;;;7397963;19;20126;-78
2022/03/15 00:27:03;;;;;;;3.55;1.33;;;;;;;;;;7398990;19;20030;-78
2022/03/15 00:29:29;;;;;;;1.85;1.23;;;;;;;;;;7397197;19;20070;-77
2022/03/15 00:31:54;;;;;;;2.33;1.40;;;;;;;;;;7401041;19;20010;-77
2022/03/15 00:34:20;;;;;;;2.80;1.38;;;;;;;;;;7397398;19;20015;-77
2022/03/15 00:36:45;;;;;;;4.43;1.50;;;;;;;;;;7395816;19;20019;-77
2022/03/15 00:39:11;;;;;;;2.63;1.38;;;;;;;;;;7399739;19;20002;-78
2022/03/15 00:41:36;;;;;;;3.53;1.33;;;;;;;;;;7401156;19;20002;-78
2022/03/15 00:44:01;;;;;;;4.88;1.55;;;;;;;;;;7399155;19;20013;-78
2022/03/15 00:46:27;;;;;;;3.08;1.35;;;;;;;;;;7397817;19;20082;-78
2022/03/15 00:48:52;;;;;;;2.67;1.08;;;;;;;;;;7398083;19;19998;-78
2022/03/15 00:51:18;;;;;;;2.60;1.25;;;;;;;;;;7397829;19;20076;-78
2022/03/15 00:53:43;;;;;;;1.88;1.08;;;;;;;;;;7397731;19;20014;-77
2022/03/15 00:56:08;;;;;;;2.55;1.42;;;;;;;;;;7400185;19;20013;-78
2022/03/15 00:58:33;;;;;;;3.78;1.48;;;;;;;;;;7397918;19;20025;-78
2022/03/15 01:00:59;;;;;;;3.72;1.60;;;;;;;;;;7397864;19;20027;-78
2022/03/15 01:03:24;;;;;;;2.42;1.13;;;;;;;;;;7400543;19;20003;-78
2022/03/15 01:05:50;;;;;;;3.42;1.52;;;;;;;;;;7400014;19;20014;-77
2022/03/15 01:08:16;;;;;;;4.55;2.38;;;;;;;;;;7397483;19;20365;-77
2022/03/15 01:10:41;;;;;;;5.53;1.73;;;;;;;;;;7398941;19;20023;-78
2022/03/15 01:13:07;;;;;;;4.00;1.75;;;;;;;;;;7399835;19;20031;-78
2022/03/15 01:15:41;;;;;;;2.35;1.63;;;;;;;;;;7398101;19;20042;-78
2022/03/15 01:18:07;;;;;;;2.20;1.40;;;;;;;;;;7395949;19;20018;-78
2022/03/15 01:20:32;;;;;;;4.13;1.40;;;;;;;;;;7400015;19;20854;-78
2022/03/15 01:22:57;;;;;;;1.70;1.23;;;;;;;;;;7400653;19;20070;-78
2022/03/15 01:25:23;;;;;;;1.95;1.33;;;;;;;;;;7396208;19;20044;-78
2022/03/15 01:27:48;;;;;;;2.45;1.42;;;;;;;;;;7395122;19;20003;-78
2022/03/15 01:30:13;;;;;;;2.75;1.52;;;;;;;;;;7397890;19;20001;-78
2022/03/15 01:32:39;;;;;;;5.35;1.95;;;;;;;;;;7399009;19;20003;-78
2022/03/15 01:35:04;;;;;;;5.07;1.35;;;;;;;;;;7397345;19;20021;-78
2022/03/15 01:37:30;;;;;;;3.10;1.70;;;;;;;;;;7397448;19;20002;-77
2022/03/15 01:39:55;;;;;;;5.20;1.42;;;;;;;;;;7399297;19;20009;-78
2022/03/15 01:42:21;;;;;;;3.13;2.03;;;;;;;;;;7399726;19;20014;-78
2022/03/15 01:44:49;;;;;;;2.17;1.55;;;;;;;;;;7397671;19;20039;-78
2022/03/15 01:47:14;;;;;;;3.65;1.60;;;;;;;;;;7396789;19;19999;-78
2022/03/15 01:49:41;;;;;;;2.33;1.20;;;;;;;;;;7397616;19;20066;-79
2022/03/15 01:52:10;;;;;;;3.00;1.90;;;;;;;;;;7393044;19;20010;-77
2022/03/15 01:54:36;;;;;;;2.45;1.52;;;;;;;;;;7392793;19;20010;-79
2022/03/15 01:57:03;;;;;;;2.47;1.75;;;;;;;;;;7392008;19;20002;-79
2022/03/15 01:59:28;;;;;;;2.88;1.70;;;;;;;;;;7392320;19;20344;-79
2022/03/15 02:01:54;;;;;;;3.33;1.88;;;;;;;;;;7391388;19;20006;-80
2022/03/15 02:04:20;;;;;;;2.33;1.73;;;;;;;;;;7392941;19;20024;-79
2022/03/15 02:06:45;;;;;;;1.92;1.42;;;;;;;;;;7397696;19;20442;-79
2022/03/15 02:09:12;;;;;;;3.42;2.03;;;;;;;;;;7392349;19;20010;-79
2022/03/15 02:11:38;;;;;;;5.45;1.77;;;;;;;;;;7393663;19;19995;-79
2022/03/15 02:14:04;;;;;;;3.08;1.75;;;;;;;;;;7395225;19;20006;-79
2022/03/15 02:16:31;;;;;;;2.65;1.65;;;;;;;;;;7394136;19;20121;-78
2022/03/15 02:18:58;;;;;;;2.95;1.60;;;;;;;;;;7394622;19;20014;-79
2022/03/15 02:21:24;;;;;;;2.78;1.67;;;;;;;;;;7395619;19;20010;-79
2022/03/15 02:23:50;;;;;;;2.83;1.52;;;;;;;;;;7398421;19;20006;-79
2022/03/15 02:26:16;;;;;;;4.07;1.60;;;;;;;;;;7392133;19;20085;-79
2022/03/15 02:28:42;;;;;;;4.93;1.65;;;;;;;;;;7391857;19;20006;-79
2022/03/15 02:31:07;;;;;;;2.33;1.50;;;;;;;;;;7395492;19;20032;-79
2022/03/15 02:33:32;;;;;;;4.65;2.03;;;;;;;;;;7397006;19;20035;-78
2022/03/15 02:35:57;;;;;;;3.28;1.90;;;;;;;;;;7393862;19;20075;-79
2022/03/15 02:38:23;;;;;;;5.60;3.25;;;;;;;;;;7394676;19;20512;-79
2022/03/15 02:40:48;;;;;;;3.65;2.30;;;;;;;;;;7396099;19;20039;-78
2022/03/15 02:43:14;;;;;;;3.03;1.70;;;;;;;;;;7396969;19;20159;-79
2022/03/15 02:45:39;;;;;;;3.08;1.88;;;;;;;;;;7390314;19;20790;-79
2022/03/15 02:48:05;;;;;;;5.28;2.30;;;;;;;;;;7391405;19;20014;-78
2022/03/15 02:50:30;;;;;;;4.75;2.45;;;;;;;;;;7395973;19;20003;-79
2022/03/15 02:52:55;;;;;;;5.20;2.45;;;;;;;;;;7397095;19;20009;-78
2022/03/15 02:55:20;;;;;;;3.22;2.30;;;;;;;;;;7394845;19;20110;-78
2022/03/15 02:57:47;;;;;;;2.97;1.77;;;;;;;;;;7398778;19;20007;-79
2022/03/15 03:00:14;;;;;;;2.40;1.45;;;;;;;;;;7403861;19;20035;-78
2022/03/15 03:02:39;;;;;;;3.20;1.92;;;;;;;;;;7401748;19;20612;-79
2022/03/15 03:05:05;;;;;;;6.68;2.47;;;;;;;;;;7400827;19;20010;-79
2022/03/15 03:07:34;;;;;;;2.70;1.70;;;;;;;;;;7393527;19;20385;-79
2022/03/15 03:09:59;;;;;;;2.75;1.85;;;;;;;;;;7396720;19;20013;-79
2022/03/15 03:12:24;;;;;;;3.33;1.70;;;;;;;;;;7396913;19;21681;-80
2022/03/15 03:14:50;;;;;;;4.68;2.17;;;;;;;;;;7399537;19;20031;-79
2022/03/15 03:17:15;;;;;;;3.85;2.10;;;;;;;;;;7396337;19;20759;-79
2022/03/15 03:19:42;;;;;;;3.50;2.45;;;;;;;;;;7396683;19;20033;-80
2022/03/15 03:22:07;;;;;;;2.88;1.50;;;;;;;;;;7395536;19;19998;-80
2022/03/15 03:24:34;;;;;;;3.55;1.73;;;;;;;;;;7399459;19;20022;-79
2022/03/15 03:27:00;;;;;;;4.57;1.95;;;;;;;;;;7395615;19;20581;-79
2022/03/15 03:29:26;;;;;;;6.38;2.33;;;;;;;;;;7396828;19;20490;-80
2022/03/15 03:31:51;;;;;;;3.65;2.38;;;;;;;;;;7396430;19;20027;-79
2022/03/15 03:34:16;;;;;;;4.20;2.30;;;;;;;;;;7394258;19;19995;-80
2022/03/15 03:36:42;;;;;;;3.20;2.17;;;;;;;;;;7395588;19;21365;-79
2022/03/15 03:39:07;;;;;;;5.90;2.42;;;;;;;;;;7394764;19;20656;-78
2022/03/15 03:41:33;;;;;;;7.18;2.35;;;;;;;;;;7392230;19;20463;-79
2022/03/15 03:43:58;;;;;;;4.85;2.63;;;;;;;;;;7398726;19;20091;-79
2022/03/15 03:46:24;;;;;;;7.22;2.50;;;;;;;;;;7393332;19;20473;-79
2022/03/15 03:48:52;;;;;;;7.57;2.72;;;;;;;;;;7396639;19;20025;-79
2022/03/15 03:51:18;;;;;;;4.05;2.38;;;;;;;;;;7395678;19;20040;-79
2022/03/15 03:53:44;;;;;;;5.28;2.85;;;;;;;;;;7394355;19;20010;-80
2022/03/15 03:56:09;;;;;;;8.88;3.10;;;;;;;;;;7392191;19;20012;-79
2022/03/15 03:58:34;;;;;;;3.50;2.28;;;;;;;;;;7390641;19;20009;-79
2022/03/15 04:01:01;;;;;;;5.60;2.92;;;;;;;;;;7398020;19;20011;-79
2022/03/15 04:03:29;;;;;;;4.43;2.70;;;;;;;;;;7396214;19;20022;-80
2022/03/15 04:05:55;;;;;;;6.25;2.70;;;;;;;;;;7396523;19;19998;-79
2022/03/15 04:08:20;;;;;;;8.55;5.47;;;;;;;;;;7393731;19;20010;-80
2022/03/15 04:10:46;;;;;;;7.50;3.63;;;;;;;;;;7394640;19;20013;-78
2022/03/15 04:13:12;;;;;;;5.55;3.05;;;;;;;;;;7398772;19;20018;-79
2022/03/15 04:15:38;;;;;;;6.40;2.63;;;;;;;;;;7399717;19;20032;-79
2022/03/15 04:18:03;;;;;;;7.15;2.75;;;;;;;;;;7396099;19;20014;-80
2022/03/15 04:20:31;;;;;;;4.93;2.70;;;;;;;;;;7396998;19;20030;-79
2022/03/15 04:23:18;;;;;;;6.07;3.03;;;;;;;;;;7403001;19;20022;-79
2022/03/15 04:25:43;;;;;;;3.60;2.22;;;;;;;;;;7402876;19;20454;-78
2022/03/15 04:28:09;;;;;;;4.63;2.80;;;;;;;;;;7400148;19;20010;-78
2022/03/15 04:30:35;;;;;;;5.30;2.08;;;;;;;;;;7403620;19;20047;-76
2022/03/15 04:33:03;;;;;;;5.65;3.00;;;;;;;;;;7418193;19;20430;-78
2022/03/15 04:35:29;;;;;;;2.35;2.00;;;;;;;;;;7384821;19;19999;-78
2022/03/15 04:37:58;;;;;;;4.63;2.60;;;;;;;;;;7411313;19;20017;-76
2022/03/15 04:40:24;;;;;;;3.70;2.40;;;;;;;;;;7415389;19;19998;-76
2022/03/15 04:43:01;;;;;;;3.65;2.05;;;;;;;;;;7414409;19;20014;-78
2022/03/15 04:45:27;;;;;;;5.20;2.70;;;;;;;;;;7412290;19;20002;-79
2022/03/15 04:47:53;;;;;;;4.20;2.50;;;;;;;;;;7402217;19;20474;-77
2022/03/15 04:50:18;;;;;;;3.88;2.40;;;;;;;;;;7405122;19;20082;-77
2022/03/15 04:52:45;;;;;;;5.00;2.83;;;;;;;;;;7402145;19;19998;-77
2022/03/15 04:55:11;;;;;;;5.43;2.83;;;;;;;;;;7402486;19;19995;-79
2022/03/15 04:57:37;;;;;;;10.27;2.95;;;;;;;;;;7404990;19;19998;-80
2022/03/15 05:00:09;;;;;;;3.30;2.40;;;;;;;;;;7407772;19;20014;-78
2022/03/15 05:02:40;;;;;;;3.38;2.40;;;;;;;;;;7411123;19;20010;-78
2022/03/15 05:05:06;;;;;;;5.28;3.28;;;;;;;;;;7406710;19;20010;-78
2022/03/15 05:07:31;;;;;;;3.97;2.28;;;;;;;;;;7404832;19;20014;-78
2022/03/15 05:12:42;;;;;;;5.05;2.60;;;;;;;;;;7372826;19;20085;-77
2022/03/15 05:15:08;;;;;;;6.20;3.13;;;;;;;;;;7403555;19;20010;-77
2022/03/15 05:17:36;;;;;;;6.60;2.75;;;;;;;;;;7403791;19;20006;-77
2022/03/15 05:20:03;;;;;;;7.53;4.20;;;;;;;;;;7407380;19;20007;-78
2022/03/15 05:22:29;;;;;;;4.15;2.85;;;;;;;;;;7403013;19;20331;-77
2022/03/15 05:24:54;;;;;;;3.75;2.30;;;;;;;;;;7401385;19;20563;-78
2022/03/15 05:27:19;;;;;;;6.85;3.88;;;;;;;;;;7397666;19;20024;-77
2022/03/15 05:29:45;;;;;;;14.77;6.05;;;;;;;;;;7399924;19;20012;-77
2022/03/15 05:32:10;;;;;;;11.25;3.90;;;;;;;;;;7399892;19;20018;-77
2022/03/15 05:34:36;;;;;;;8.95;3.90;;;;;;;;;;7400787;19;19995;-78
2022/03/15 05:37:01;;;;;;;5.32;3.45;;;;;;;;;;7403042;19;20039;-77
2022/03/15 05:39:27;;;;;;;6.68;3.92;;;;;;;;;;7402215;19;20018;-77
2022/03/15 05:41:52;;;;;;;10.05;4.80;;;;;;;;;;7398744;19;20308;-77
2022/03/15 05:44:18;;;;;;;9.13;5.05;;;;;;;;;;7400787;19;20033;-77
2022/03/15 05:46:43;;;;;;;8.93;4.93;;;;;;;;;;7401314;19;20013;-77
2022/03/15 05:49:08;;;;;;;10.80;5.03;;;;;;;;;;7397218;19;20387;-77
2022/03/15 05:51:34;;;;;;;10.35;6.40;;;;;;;;;;7399062;19;20010;-77
2022/03/15 05:53:59;;;;;;;10.50;5.72;;;;;;;;;;7397504;19;20015;-77
2022/03/15 05:56:24;;;;;;;9.35;4.85;;;;;;;;;;7401540;19;20006;-77
2022/03/15 05:58:50;;;;;;;7.60;4.60;;;;;;;;;;7399864;19;20027;-77
2022/03/15 06:01:16;;;;;;;9.30;4.65;;;;;;;;;;7397905;19;19990;-77
2022/03/15 06:03:42;;;;;;;5.18;3.40;;;;;;;;;;7395919;19;20107;-77
2022/03/15 06:06:07;;;;;;;7.40;3.60;;;;;;;;;;7400038;19;20125;-79
2022/03/15 06:08:32;;;;;;;7.70;4.50;;;;;;;;;;7393394;19;20481;-78
2022/03/15 06:10:59;;;;;;;11.75;4.85;;;;;;;;;;7394020;19;20044;-79
2022/03/15 06:13:25;;;;;;;6.72;3.67;;;;;;;;;;7401606;19;20014;-78
2022/03/15 06:15:50;;;;;;;7.15;4.20;;;;;;;;;;7412256;19;20009;-79
2022/03/15 06:18:16;;;;;;;5.35;4.05;;;;;;;;;;7414177;19;20013;-78
2022/03/15 06:20:41;;;;;;;7.75;4.75;;;;;;;;;;7416878;19;20010;-80
2022/03/15 06:23:06;;;;;;;9.00;5.13;;;;;;;;;;7419867;19;20051;-82
2022/03/15 06:25:32;;;;;;;9.98;5.15;;;;;;;;;;7404606;19;20087;-77
2022/03/15 06:27:58;;;;;;;9.05;5.20;;;;;;;;;;7401291;19;20013;-77
2022/03/15 06:30:24;;;;;;;7.80;4.95;;;;;;;;;;7395977;19;20052;-79
2022/03/15 06:32:49;;;;;;;11.10;5.60;;;;;;;;;;7393024;19;20010;-79
2022/03/15 06:35:15;;;;;;;10.57;5.03;;;;;;;;;;7396638;19;19999;-79
2022/03/15 06:37:44;;;;;;;7.93;4.65;;;;;;;;;;7397453;19;20396;-77
2022/03/15 06:40:10;;;;;;;7.45;4.07;;;;;;;;;;7400514;19;20002;-78
2022/03/15 06:42:38;;;;;;;8.98;4.40;;;;;;;;;;7398521;19;20014;-78
2022/03/15 06:45:04;;;;;;;7.35;4.90;;;;;;;;;;7403412;19;20023;-78
2022/03/15 06:47:30;;;;;;;7.43;4.30;;;;;;;;;;7402772;19;20030;-78
2022/03/15 06:49:55;;;;;;;8.23;4.13;;;;;;;;;;7400278;19;20010;-78
2022/03/15 06:52:20;;;;;;;9.73;5.18;;;;;;;;;;7399998;19;20026;-78
2022/03/15 06:54:46;;;;;;;10.98;4.15;;;;;;;;;;7401747;19;20022;-80
2022/03/15 06:57:11;;;;;;;7.68;4.97;;;;;;;;;;7401139;19;19998;-78
2022/03/15 06:59:36;;;;;;;8.98;4.38;;;;;;;;;;7401493;19;20062;-78
2022/03/15 07:02:02;;;;;;;18.27;5.15;;;;;;;;;;7396260;19;20003;-78
2022/03/15 07:04:28;;;;;;;8.55;5.28;;;;;;;;;;7389853;19;20039;-78
2022/03/15 07:06:53;;;;;;;18.75;5.30;;;;;;;;;;7394595;19;20025;-78
2022/03/15 07:09:19;;;;;;;11.73;5.38;;;;;;;;;;7389944;19;20037;-78
2022/03/15 07:11:44;;;;;;;8.30;5.15;;;;;;;;;;7389717;19;20484;-78
2022/03/15 07:14:09;;;;;;;9.13;5.30;;;;;;;;;;7386763;19;19995;-77
2022/03/15 07:16:35;;;;;;;10.20;5.15;;;;;;;;;;7389681;19;20118;-78
2022/03/15 07:19:00;;;;;;;12.98;5.78;;;;;;;;;;7388538;19;20086;-78
2022/03/15 07:21:25;;;;;;;8.45;5.10;;;;;;;;;;7391026;19;20083;-78
2022/03/15 07:23:51;;;;;;;11.73;5.90;;;;;;;;;;7359718;19;19999;-78
2022/03/15 07:26:16;;;;;;;11.82;6.15;;;;;;;;;;7387936;19;20014;-78
2022/03/15 07:28:42;;;;;;;13.00;6.00;;;;;;;;;;7385733;19;20007;-78
2022/03/15 07:31:07;;;;;;;11.13;6.10;;;;;;;;;;7391730;19;20438;-78
2022/03/15 07:33:32;;;;;;;10.25;5.00;;;;;;;;;;7387095;19;20125;-78
2022/03/15 07:36:02;;;;;;;8.75;5.28;;;;;;;;;;7389376;19;20007;-78
2022/03/15 07:38:28;;;;;;;8.43;5.63;;;;;;;;;;7386989;19;20440;-79
2022/03/15 07:40:53;;;;;;;8.10;5.38;;;;;;;;;;7388599;19;20013;-78
2022/03/15 07:43:22;;;;;;;10.85;6.40;;;;;;;;;;7391100;19;20021;-78
2022/03/15 07:45:47;;;;;;;12.13;6.32;;;;;;;;;;7395656;19;20037;-77
2022/03/15 07:48:12;;;;;;;11.18;5.93;;;;;;;;;;7392613;19;20011;-78
2022/03/15 07:50:38;;;;;;;11.80;6.57;;;;;;;;;;7396029;19;19998;-78
2022/03/15 07:53:03;;;;;;;9.50;6.03;;;;;;;;;;7397032;19;20438;-78
2022/03/15 07:55:28;;;;;;;9.57;5.88;;;;;;;;;;7395129;19;20034;-80
2022/03/15 07:57:54;;;;;;;9.60;6.03;;;;;;;;;;7392204;19;20006;-78
2022/03/15 08:00:19;;;;;;;13.43;6.18;;;;;;;;;;7394698;19;19995;-78
2022/03/15 08:02:44;;;;;;;14.32;5.25;;;;;;;;;;7393942;19;20672;-77
2022/03/15 08:05:10;;;;;;;13.25;5.93;;;;;;;;;;7394523;19;20032;-77
2022/03/15 08:07:36;;;;;;;9.48;6.30;;;;;;;;;;7361435;19;20801;-77
2022/03/15 08:10:03;;;;;;;8.20;5.05;;;;;;;;;;7392275;19;20074;-76
2022/03/15 08:12:29;;;;;;;8.93;5.60;;;;;;;;;;7393299;19;20029;-77
2022/03/15 08:14:55;;;;;;;11.38;5.07;;;;;;;;;;7391354;19;20474;-77
2022/03/15 08:17:20;;;;;;;12.23;6.00;;;;;;;;;;7390423;19;20014;-77
2022/03/15 08:19:45;;;;;;;10.73;6.03;;;;;;;;;;7392197;19;19998;-77
2022/03/15 08:22:11;;;;;;;8.73;5.38;;;;;;;;;;7392779;19;20778;-77
2022/03/15 08:24:36;;;;;;;10.80;6.00;;;;;;;;;;7395146;19;20146;-76
2022/03/15 08:27:02;;;;;;;8.27;5.32;;;;;;;;;;7391450;19;20018;-77
2022/03/15 08:29:29;;;;;;;8.20;5.40;;;;;;;;;;7392026;19;20319;-77
2022/03/15 08:31:54;;;;;;;8.48;5.15;;;;;;;;;;7392305;19;20010;-77
2022/03/15 08:34:19;;;;;;;10.20;6.03;;;;;;;;;;7393341;19;20010;-77
2022/03/15 08:36:44;;;;;;;11.85;6.18;;;;;;;;;;7392902;19;20475;-77
2022/03/15 08:39:10;;;;;;;11.40;6.93;;;;;;;;;;7390034;19;20001;-76
2022/03/15 08:41:35;;;;;;;9.77;5.97;;;;;;;;;;7390434;19;20018;-75
2022/03/15 08:44:00;;;;;;;13.00;5.60;;;;;;;;;;7391751;19;20132;-76
2022/03/15 08:46:26;;;;;;;10.77;5.97;;;;;;;;;;7390378;19;20495;-76
2022/03/15 08:48:51;;;;;;;8.75;5.50;;;;;;;;;;7391687;19;20010;-76
2022/03/15 08:51:16;;;;;;;8.68;5.80;;;;;;;;;;7390015;19;19994;-76
2022/03/15 08:53:42;;;;;;;8.70;5.82;;;;;;;;;;7390866;19;20347;-76
2022/03/15 08:56:07;;;;;;;9.23;5.40;;;;;;;;;;7387938;19;20111;-76
2022/03/15 08:58:32;;;;;;;9.20;5.07;;;;;;;;;;7389116;19;20025;-76
2022/03/15 09:00:58;;;;;;;11.35;5.30;;;;;;;;;;7392989;19;20018;-76
2022/03/15 09:03:24;;;;;;;9.90;5.15;;;;;;;;;;7393293;19;20002;-76
2022/03/15 09:05:50;;;;;;;11.80;5.57;;;;;;;;;;7393275;19;20142;-76
2022/03/15 09:08:15;;;;;;;11.45;5.13;;;;;;;;;;7389640;19;20009;-76
2022/03/15 09:10:42;;;;;;;7.45;5.30;;;;;;;;;;7392524;19;20002;-76
2022/03/15 09:13:09;;;;;;;8.57;5.13;;;;;;;;;;7393439;19;20384;-76
2022/03/15 09:15:34;;;;;;;9.88;5.68;;;;;;;;;;7395253;19;20023;-75
2022/03/15 09:18:00;;;;;;;8.52;5.38;;;;;;;;;;7393579;19;20002;-77
2022/03/15 09:20:25;;;;;;;12.32;5.80;;;;;;;;;;7397019;19;20014;-76
2022/03/15 09:22:51;;;;;;;7.38;5.18;;;;;;;;;;7392618;19;20006;-76
2022/03/15 09:25:17;;;;;;;8.15;5.43;;;;;;;;;;7389852;19;20603;-76
2022/03/15 09:27:42;;;;;;;10.85;4.40;;;;;;;;;;7391388;19;20011;-76
2022/03/15 09:30:08;;;;;;;8.27;4.82;;;;;;;;;;7390640;19;20030;-77
2022/03/15 09:32:33;;;;;;;7.45;5.25;;;;;;;;;;7393788;19;20048;-76
2022/03/15 09:34:59;;;;;;;10.48;4.22;;;;;;;;;;7390589;19;20011;-76
2022/03/15 09:37:24;;;;;;;8.75;5.10;;;;;;;;;;7390997;19;19998;-75
2022/03/15 09:39:52;;;;;;;8.35;4.55;;;;;;;;;;7389762;19;20025;-76
2022/03/15 09:42:19;;;;;;;7.03;4.45;;;;;;;;;;7390949;19;20014;-75
2022/03/15 09:44:47;;;;;;;8.45;4.45;;;;;;;;;;7389343;19;19998;-75
2022/03/15 09:47:17;;;;;;;8.20;4.68;;;;;;;;;;7390546;19;20333;-75
2022/03/15 09:49:45;;;;;;;8.52;4.43;;;;;;;;;;7391125;19;20044;-75
2022/03/15 09:52:11;;;;;;;8.10;4.68;;;;;;;;;;7393136;19;20014;-75
2022/03/15 09:54:38;;;;;;;10.70;4.45;;;;;;;;;;7391885;19;20006;-76
2022/03/15 09:57:05;;;;;;;8.75;3.72;;;;;;;;;;7387402;19;20010;-76
2022/03/15 09:59:32;;;;;;;7.22;3.63;;;;;;;;;;7389308;19;20011;-75
2022/03/15 10:01:59;;;;;;;7.38;4.07;;;;;;;;;;7386567;19;20001;-76
2022/03/15 10:04:25;;;;;;;6.07;3.90;;;;;;;;;;7389610;19;20014;-75
2022/03/15 10:06:52;;;;;;;6.65;3.80;;;;;;;;;;7389370;19;20002;-75
2022/03/15 10:09:17;;;;;;;8.02;4.43;;;;;;;;;;7388494;19;20505;-75
2022/03/15 10:11:43;;;;;;;5.63;4.00;;;;;;;;;;7389808;19;20458;-75
2022/03/15 10:14:10;;;;;;;9.80;5.30;;;;;;;;;;7389053;19;20312;-75
2022/03/15 10:16:41;;;;;;;7.00;3.92;;;;;;;;;;7387473;19;20453;-75
2022/03/15 10:19:08;;;;;;;7.13;3.83;;;;;;;;;;7383924;19;20018;-75
2022/03/15 10:21:49;;;;;;;5.63;3.42;;;;;;;;;;7387231;19;20016;-75
2022/03/15 10:24:26;;;;;;;6.40;3.30;;;;;;;;;;7387222;19;20014;-76
2022/03/15 10:26:53;;;;;;;4.72;2.88;;;;;;;;;;7385765;19;20020;-75
2022/03/15 10:29:20;;;;;;;5.35;3.50;;;;;;;;;;7387646;19;20080;-75
2022/03/15 10:31:46;;;;;;;8.23;3.20;;;;;;;;;;7389309;19;20027;-75
2022/03/15 10:34:14;;;;;;;6.88;3.60;;;;;;;;;;7383272;19;20001;-75
2022/03/15 10:36:45;;;;;;;8.80;3.95;;;;;;;;;;7383227;19;20035;-75
2022/03/15 10:39:12;;;;;;;7.15;3.15;;;;;;;;;;7385641;19;20007;-75
2022/03/15 10:41:51;;;;;;;4.43;3.10;;;;;;;;;;7386800;19;20009;-75
2022/03/15 10:44:40;;;;;;;5.85;3.30;;;;;;;;;;7386399;19;20098;-75
2022/03/15 10:47:15;;;;;;;4.65;3.17;;;;;;;;;;7387637;19;20022;-76
2022/03/15 10:49:55;;;;;;;3.63;2.88;;;;;;;;;;7386689;19;20002;-75
2022/03/15 10:52:35;;;;;;;5.15;2.70;;;;;;;;;;7387889;19;20123;-77
2022/03/15 10:55:27;;;;;;;4.60;3.10;;;;;;;;;;7387554;19;20023;-76
2022/03/15 10:58:05;;;;;;;6.90;3.42;;;;;;;;;;7384731;19;20010;-76
2022/03/15 11:00:37;;;;;;;5.72;2.85;;;;;;;;;;7387208;19;20014;-77
2022/03/15 11:03:06;;;;;;;5.60;3.08;;;;;;;;;;7391935;19;20014;-77
2022/03/15 11:05:38;;;;;;;3.83;2.53;;;;;;;;;;7390100;19;20003;-77
2022/03/15 11:08:07;;;;;;;6.03;2.78;;;;;;;;;;7388176;19;20035;-78
2022/03/15 11:10:33;;;;;;;7.25;3.20;;;;;;;;;;7391172;19;20018;-77
2022/03/15 11:13:07;;;;;;;5.20;3.20;;;;;;;;;;7391356;19;20036;-77
2022/03/15 11:15:36;;;;;;;4.47;2.75;;;;;;;;;;7389408;19;20350;-77
2022/03/15 11:18:04;;;;;;;4.28;2.35;;;;;;;;;;7387743;19;20050;-77
2022/03/15 11:20:41;;;;;;;6.75;2.92;;;;;;;;;;7396460;19;20069;-78
2022/03/15 11:23:08;;;;;;;6.25;2.92;;;;;;;;;;7390337;19;20002;-79
2022/03/15 11:25:39;;;;;;;4.40;2.88;;;;;;;;;;7392826;19;20014;-78
2022/03/15 11:28:09;;;;;;;7.35;3.40;;;;;;;;;;7391694;19;20011;-76
2022/03/15 11:30:35;;;;;;;3.83;2.67;;;;;;;;;;7394655;19;20130;-76
2022/03/15 11:33:04;;;;;;;5.10;2.45;;;;;;;;;;7392909;19;20011;-77
2022/03/15 11:35:31;;;;;;;4.43;2.63;;;;;;;;;;7392916;19;20019;-76
2022/03/15 11:38:02;;;;;;;5.13;2.28;;;;;;;;;;7389069;19;20027;-76
2022/03/15 11:40:29;;;;;;;3.08;2.15;;;;;;;;;;7394643;19;20002;-76
2022/03/15 11:43:22;;;;;;;6.68;2.65;;;;;;;;;;7389968;19;20013;-76
2022/03/15 11:46:12;;;;;;;4.20;2.53;;;;;;;;;;7389472;19;20051;-76
2022/03/15 11:49:12;;;;;;;5.70;2.70;;;;;;;;;;7392783;19;20066;-76
2022/03/15 11:51:49;;;;;;;6.05;2.63;;;;;;;;;;7393305;19;20011;-76
2022/03/15 11:54:30;;;;;;;5.10;2.80;;;;;;;;;;7392194;19;19994;-76
2022/03/15 11:57:13;;;;;;;4.18;2.47;;;;;;;;;;7391736;19;20013;-76
2022/03/15 11:59:45;;;;;;;7.15;2.85;;;;;;;;;;7392014;19;20086;-76
2022/03/15 12:02:26;;;;;;;4.50;2.35;;;;;;;;;;7396817;19;20006;-77
2022/03/15 12:04:56;;;;;;;7.97;2.42;;;;;;;;;;7401335;19;20010;-75
2022/03/15 12:07:44;;;;;;;7.53;2.30;;;;;;;;;;7401047;19;20041;-78
2022/03/15 12:10:11;;;;;;;7.65;2.55;;;;;;;;;;7402757;19;20015;-76
2022/03/15 12:12:44;;;;;;;4.13;2.08;;;;;;;;;;7396478;19;20059;-76
2022/03/15 12:15:15;;;;;;;2.92;2.20;;;;;;;;;;7404031;19;20009;-76
2022/03/15 12:17:42;;;;;;;4.25;2.38;;;;;;;;;;7399651;19;20014;-76
2022/03/15 12:20:14;;;;;;;4.28;2.55;;;;;;;;;;7400809;19;19998;-77
2022/03/15 12:26:29;;;;;;;2.95;1.83;;;;;;;;;;7399785;19;20050;-76
2022/03/15 12:29:14;;;;;;;5.25;2.35;;;;;;;;;;7398732;19;20506;-75
2022/03/15 12:31:46;;;;;;;5.95;2.42;;;;;;;;;;7398603;19;20426;-76
2022/03/15 12:34:17;;;;;;;8.07;3.30;;;;;;;;;;7401116;19;20014;-76
2022/03/15 12:36:58;;;;;;;6.57;2.70;;;;;;;;;;7400135;19;20011;-75
2022/03/15 12:39:34;;;;;;;5.05;1.65;;;;;;;;;;7390812;19;20513;-77
2022/03/15 12:42:03;;;;;;;;;;;;;;;;;;7397057;19;20370;-77
2022/03/15 12:44:39;;;;;;;6.43;2.20;;;;;;;;;;7399562;19;19907;-76
2022/03/15 12:47:07;;;;;;;3.73;2.10;;;;;;;;;;7212955;19;2838502;-76
2022/03/15 12:49:35;;;;;;;3.53;1.80;;;;;;;;;;7401392;19;20671;-77
2022/03/15 12:52:14;;;;;;;4.65;1.95;;;;;;;;;;7394258;19;19995;-76
2022/03/15 12:54:43;;;;;;;9.10;2.13;;;;;;;;;;7396694;19;20019;-75
2022/03/15 12:57:11;;;;;;;3.85;2.53;;;;;;;;;;7397268;19;19996;-75
2022/03/15 12:59:38;;;;;;;2.85;1.95;;;;;;;;;;7399247;19;20018;-76
2022/03/15 13:02:04;;;;;;;4.20;2.28;;;;;;;;;;7391030;19;20082;-76
2022/03/15 13:04:32;;;;;;;2.08;1.85;;;;;;;;;;7393276;19;20007;-76
2022/03/15 13:07:01;;;;;;;2.70;1.73;;;;;;;;;;7393802;19;20015;-75
2022/03/15 13:09:27;;;;;;;3.38;2.30;;;;;;;;;;7398967;19;20006;-76
2022/03/15 13:11:56;;;;;;;6.93;2.38;;;;;;;;;;7398877;19;20007;-76
2022/03/15 13:14:27;;;;;;;4.13;2.17;;;;;;;;;;7398384;19;20027;-76
2022/03/15 13:16:55;;;;;;;5.68;2.00;;;;;;;;;;7397290;19;19999;-76
2022/03/15 13:19:26;;;;;;;3.28;2.15;;;;;;;;;;7390390;19;20007;-76
2022/03/15 13:21:52;;;;;;;4.32;2.70;;;;;;;;;;7394976;19;20374;-76
2022/03/15 13:24:23;;;;;;;5.10;2.15;;;;;;;;;;7397205;19;20006;-76
2022/03/15 13:26:49;;;;;;;5.55;2.53;;;;;;;;;;7397534;19;20019;-75
2022/03/15 13:29:15;;;;;;;4.50;2.85;;;;;;;;;;7405294;19;20010;-76
2022/03/15 13:31:40;;;;;;;3.45;2.38;;;;;;;;;;7410510;19;20046;-77
2022/03/15 13:34:08;;;;;;;3.33;2.40;;;;;;;;;;7415246;19;20026;-77
2022/03/15 13:36:34;;;;;;;5.97;2.67;;;;;;;;;;7408503;19;20007;-77
2022/03/15 13:39:09;;;;;;;5.40;2.50;;;;;;;;;;7410414;19;20006;-76
2022/03/15 13:41:42;;;;;;;18.45;8.95;;;;;;;;;;7391803;19;20107;-78
2022/03/15 13:44:30;;;;;;;10.10;5.82;;;;;;;;;;7382584;19;20351;-79
2022/03/15 13:47:08;;;;;;;9.80;3.70;;;;;;;;;;7389777;19;20018;-79
2022/03/15 13:49:38;;;;;;;5.47;3.30;;;;;;;;;;7391680;19;20085;-79
2022/03/15 13:52:16;;;;;;;5.90;3.45;;;;;;;;;;7399508;19;20027;-79
2022/03/15 13:54:50;;;;;;;5.93;2.88;;;;;;;;;;7394112;19;20010;-78
2022/03/15 13:57:27;;;;;;;5.70;2.67;;;;;;;;;;7392287;19;20006;-78
2022/03/15 14:00:11;;;;;;;3.80;2.70;;;;;;;;;;7392717;19;20484;-78
2022/03/15 14:02:40;;;;;;;7.85;2.90;;;;;;;;;;7388689;19;20077;-77
2022/03/15 14:05:09;;;;;;;8.27;3.45;;;;;;;;;;7388741;19;20015;-77
2022/03/15 14:07:35;;;;;;;4.57;2.80;;;;;;;;;;7395145;19;20009;-80
2022/03/15 14:10:04;;;;;;;6.05;2.70;;;;;;;;;;7392786;19;20488;-80
2022/03/15 14:12:32;;;;;;;8.23;3.45;;;;;;;;;;7393134;19;20014;-79
2022/03/15 14:15:04;;;;;;;7.30;3.53;;;;;;;;;;7391888;19;20015;-78
2022/03/15 14:17:45;;;;;;;12.18;3.65;;;;;;;;;;7392754;19;20014;-80
2022/03/15 14:20:15;;;;;;;6.13;3.25;;;;;;;;;;7398435;19;20019;-79
2022/03/15 14:22:48;;;;;;;10.35;4.32;;;;;;;;;;7398498;19;20462;-80
2022/03/15 14:25:20;;;;;;;10.25;3.80;;;;;;;;;;7398423;19;20077;-78
2022/03/15 14:27:45;;;;;;;8.70;3.97;;;;;;;;;;7396826;19;20011;-80
2022/03/15 14:30:14;;;;;;;8.07;4.13;;;;;;;;;;7397299;19;20009;-81
2022/03/15 14:32:51;;;;;;;6.78;3.83;;;;;;;;;;7394139;19;20013;-80
2022/03/15 14:35:18;;;;;;;5.35;3.35;;;;;;;;;;7394432;19;20520;-79
2022/03/15 14:37:46;;;;;;;6.30;3.65;;;;;;;;;;7389666;19;20006;-79
2022/03/15 14:40:13;;;;;;;7.90;3.30;;;;;;;;;;7390926;19;20006;-77
2022/03/15 14:42:44;;;;;;;6.13;3.15;;;;;;;;;;7392675;19;20453;-77
2022/03/15 14:45:14;;;;;;;4.72;2.78;;;;;;;;;;7393826;19;20014;-77
2022/03/15 14:47:43;;;;;;;7.18;3.63;;;;;;;;;;7393351;19;20023;-77
2022/03/15 14:50:13;;;;;;;5.10;2.58;;;;;;;;;;7389987;19;20115;-77